sensor_id;sensor_type;location;lat;lon;timestamp;temperature;humidity
23335;DHT22;11839;48.598;8.870;2022-11-20T00:01:16;7.70;99.90
23335;DHT22;11839;48.598;8.870;2022-11-20T00:03:44;7.50;99.90
23335;DHT22;11839;48.598;8.870;2022-11-20T00:06:14;7.50;99.90
23335;DHT22;11839;48.598;8.870;2022-11-20T00:08:41;7.50;99.90
23335;DHT22;11839;48.598;8.870;2022-11-20T00:11:10;7.60;99.90
23335;DHT22;11839;48.598;8.870;2022-11-20T00:13:37;7.60;99.90
23335;DHT22;11839;48.598;8.870;2022-11-20T00:16:07;7.50;99.90
23335;DHT22;11839;48.598;8.870;2022-11-20T00:18:36;7.30;99.90
23335;DHT22;11839;48.598;8.870;2022-11-20T00:21:03;7.20;99.90
23335;DHT22;11839;48.598;8.870;2022-11-20T00:23:32;7.30;99.90
23335;DHT22;11839;48.598;8.870;2022-11-20T00:26:02;7.20;99.90
23335;DHT22;11839;48.598;8.870;2022-11-20T00:28:29;7.20;99.90
23335;DHT22;11839;48.598;8.870;2022-11-20T00:31:01;7.40;99.90
23335;DHT22;11839;48.598;8.870;2022-11-20T00:33:28;7.30;99.90
23335;DHT22;11839;48.598;8.870;2022-11-20T00:35:59;7.40;99.90
23335;DHT22;11839;48.598;8.870;2022-11-20T00:38:27;7.40;99.90
23335;DHT22;11839;48.598;8.870;2022-11-20T00:40:57;7.40;99.90
23335;DHT22;11839;48.598;8.870;2022-11-20T00:43:24;7.50;99.90
23335;DHT22;11839;48.598;8.870;2022-11-20T00:45:51;7.20;99.90
23335;DHT22;11839;48.598;8.870;2022-11-20T00:48:18;7.10;99.90
23335;DHT22;11839;48.598;8.870;2022-11-20T00:50:45;7.20;99.90
23335;DHT22;11839;48.598;8.870;2022-11-20T00:53:11;7.20;99.90
23335;DHT22;11839;48.598;8.870;2022-11-20T00:55:38;6.90;99.90
23335;DHT22;11839;48.598;8.870;2022-11-20T00:58:06;6.60;99.90
23335;DHT22;11839;48.598;8.870;2022-11-20T01:00:34;6.30;99.90
23335;DHT22;11839;48.598;8.870;2022-11-20T01:03:01;6.30;99.90
23335;DHT22;11839;48.598;8.870;2022-11-20T01:05:28;6.10;99.90
23335;DHT22;11839;48.598;8.870;2022-11-20T01:07:54;6.30;99.90
23335;DHT22;11839;48.598;8.870;2022-11-20T01:10:21;6.30;99.90
23335;DHT22;11839;48.598;8.870;2022-11-20T01:12:48;6.30;99.90
23335;DHT22;11839;48.598;8.870;2022-11-20T01:15:36;6.50;99.90
23335;DHT22;11839;48.598;8.870;2022-11-20T01:18:03;6.70;99.90
23335;DHT22;11839;48.598;8.870;2022-11-20T01:20:34;6.60;99.90
23335;DHT22;11839;48.598;8.870;2022-11-20T01:23:01;6.50;99.90
23335;DHT22;11839;48.598;8.870;2022-11-20T01:25:27;6.40;99.90
23335;DHT22;11839;48.598;8.870;2022-11-20T01:27:54;6.30;99.90
23335;DHT22;11839;48.598;8.870;2022-11-20T01:30:21;6.30;99.90
23335;DHT22;11839;48.598;8.870;2022-11-20T01:32:49;6.30;99.90
23335;DHT22;11839;48.598;8.870;2022-11-20T01:35:16;6.10;99.90
23335;DHT22;11839;48.598;8.870;2022-11-20T01:37:43;6.10;99.90
23335;DHT22;11839;48.598;8.870;2022-11-20T01:40:11;6.00;99.90
23335;DHT22;11839;48.598;8.870;2022-11-20T01:42:38;6.00;99.90
23335;DHT22;11839;48.598;8.870;2022-11-20T01:45:56;5.80;99.90
23335;DHT22;11839;48.598;8.870;2022-11-20T01:48:28;5.90;99.90
23335;DHT22;11839;48.598;8.870;2022-11-20T01:50:57;5.60;99.90
23335;DHT22;11839;48.598;8.870;2022-11-20T01:53:27;5.40;99.90
23335;DHT22;11839;48.598;8.870;2022-11-20T01:55:56;5.70;99.90
23335;DHT22;11839;48.598;8.870;2022-11-20T01:58:28;5.90;99.90
23335;DHT22;11839;48.598;8.870;2022-11-20T02:00:56;5.70;99.90
23335;DHT22;11839;48.598;8.870;2022-11-20T02:03:26;5.80;99.90
23335;DHT22;11839;48.598;8.870;2022-11-20T02:05:57;6.00;99.90
23335;DHT22;11839;48.598;8.870;2022-11-20T02:08:26;6.00;99.90
23335;DHT22;11839;48.598;8.870;2022-11-20T02:10:54;5.60;99.90
23335;DHT22;11839;48.598;8.870;2022-11-20T02:13:21;5.60;99.90
23335;DHT22;11839;48.598;8.870;2022-11-20T02:16:10;5.50;99.90
23335;DHT22;11839;48.598;8.870;2022-11-20T02:18:39;5.70;99.90
23335;DHT22;11839;48.598;8.870;2022-11-20T02:21:13;5.70;99.90
23335;DHT22;11839;48.598;8.870;2022-11-20T02:24:05;5.70;99.90
23335;DHT22;11839;48.598;8.870;2022-11-20T02:26:39;5.80;99.90
23335;DHT22;11839;48.598;8.870;2022-11-20T02:29:06;5.90;99.90
23335;DHT22;11839;48.598;8.870;2022-11-20T02:31:37;5.90;99.90
23335;DHT22;11839;48.598;8.870;2022-11-20T02:34:04;6.00;99.90
23335;DHT22;11839;48.598;8.870;2022-11-20T02:36:32;5.70;99.90
23335;DHT22;11839;48.598;8.870;2022-11-20T02:39:02;5.90;99.90
23335;DHT22;11839;48.598;8.870;2022-11-20T02:41:33;5.90;99.90
23335;DHT22;11839;48.598;8.870;2022-11-20T02:44:00;6.00;99.90
23335;DHT22;11839;48.598;8.870;2022-11-20T02:46:27;5.80;99.90
23335;DHT22;11839;48.598;8.870;2022-11-20T02:48:54;5.90;99.90
23335;DHT22;11839;48.598;8.870;2022-11-20T02:51:22;6.00;99.90
23335;DHT22;11839;48.598;8.870;2022-11-20T02:53:49;6.00;99.90
23335;DHT22;11839;48.598;8.870;2022-11-20T02:56:17;6.00;99.90
23335;DHT22;11839;48.598;8.870;2022-11-20T02:58:44;5.90;99.90
23335;DHT22;11839;48.598;8.870;2022-11-20T03:01:12;6.00;99.90
23335;DHT22;11839;48.598;8.870;2022-11-20T03:03:38;6.10;99.90
23335;DHT22;11839;48.598;8.870;2022-11-20T03:06:06;6.40;99.90
23335;DHT22;11839;48.598;8.870;2022-11-20T03:08:33;6.40;99.90
23335;DHT22;11839;48.598;8.870;2022-11-20T03:11:02;6.30;99.90
23335;DHT22;11839;48.598;8.870;2022-11-20T03:13:31;6.40;99.90
23335;DHT22;11839;48.598;8.870;2022-11-20T03:15:58;6.50;99.90
23335;DHT22;11839;48.598;8.870;2022-11-20T03:18:27;6.50;99.90
23335;DHT22;11839;48.598;8.870;2022-11-20T03:20:57;6.50;99.90
23335;DHT22;11839;48.598;8.870;2022-11-20T03:23:25;6.50;99.90
23335;DHT22;11839;48.598;8.870;2022-11-20T03:25:52;6.70;99.90
23335;DHT22;11839;48.598;8.870;2022-11-20T03:28:19;6.60;99.90
23335;DHT22;11839;48.598;8.870;2022-11-20T03:30:47;6.60;99.90
23335;DHT22;11839;48.598;8.870;2022-11-20T03:33:13;6.70;99.90
23335;DHT22;11839;48.598;8.870;2022-11-20T03:35:40;6.70;99.90
23335;DHT22;11839;48.598;8.870;2022-11-20T03:38:07;6.70;99.90
23335;DHT22;11839;48.598;8.870;2022-11-20T03:40:34;6.80;99.90
23335;DHT22;11839;48.598;8.870;2022-11-20T03:43:01;6.80;99.90
23335;DHT22;11839;48.598;8.870;2022-11-20T03:45:28;6.50;99.90
23335;DHT22;11839;48.598;8.870;2022-11-20T03:47:56;6.50;99.90
23335;DHT22;11839;48.598;8.870;2022-11-20T03:50:23;6.60;99.90
23335;DHT22;11839;48.598;8.870;2022-11-20T03:52:50;6.70;99.90
23335;DHT22;11839;48.598;8.870;2022-11-20T03:55:17;6.40;99.90
23335;DHT22;11839;48.598;8.870;2022-11-20T03:57:43;6.60;99.90
23335;DHT22;11839;48.598;8.870;2022-11-20T04:00:12;6.70;99.90
23335;DHT22;11839;48.598;8.870;2022-11-20T04:02:39;6.70;99.90
23335;DHT22;11839;48.598;8.870;2022-11-20T04:05:08;6.80;99.90
23335;DHT22;11839;48.598;8.870;2022-11-20T04:07:35;6.70;99.90
23335;DHT22;11839;48.598;8.870;2022-11-20T04:10:02;6.90;99.90
23335;DHT22;11839;48.598;8.870;2022-11-20T04:12:32;6.60;99.90
23335;DHT22;11839;48.598;8.870;2022-11-20T04:14:58;6.30;99.90
23335;DHT22;11839;48.598;8.870;2022-11-20T04:17:25;6.30;99.90
23335;DHT22;11839;48.598;8.870;2022-11-20T04:19:52;6.40;99.90
23335;DHT22;11839;48.598;8.870;2022-11-20T04:22:21;6.70;99.90
23335;DHT22;11839;48.598;8.870;2022-11-20T04:24:48;7.00;99.90
23335;DHT22;11839;48.598;8.870;2022-11-20T04:27:15;6.80;99.90
23335;DHT22;11839;48.598;8.870;2022-11-20T04:29:42;6.70;99.90
23335;DHT22;11839;48.598;8.870;2022-11-20T04:32:09;6.70;99.90
23335;DHT22;11839;48.598;8.870;2022-11-20T04:34:36;6.50;99.90
23335;DHT22;11839;48.598;8.870;2022-11-20T04:37:02;6.30;99.90
23335;DHT22;11839;48.598;8.870;2022-11-20T04:39:30;6.10;99.90
23335;DHT22;11839;48.598;8.870;2022-11-20T04:41:57;5.90;99.90
23335;DHT22;11839;48.598;8.870;2022-11-20T04:44:38;5.90;99.90
23335;DHT22;11839;48.598;8.870;2022-11-20T04:47:05;5.90;99.90
23335;DHT22;11839;48.598;8.870;2022-11-20T04:49:32;5.90;99.90
23335;DHT22;11839;48.598;8.870;2022-11-20T04:51:59;6.00;99.90
23335;DHT22;11839;48.598;8.870;2022-11-20T04:54:26;6.10;99.90
23335;DHT22;11839;48.598;8.870;2022-11-20T04:56:54;6.10;99.90
23335;DHT22;11839;48.598;8.870;2022-11-20T04:59:21;6.00;99.90
23335;DHT22;11839;48.598;8.870;2022-11-20T05:01:48;6.10;99.90
23335;DHT22;11839;48.598;8.870;2022-11-20T05:04:15;6.00;99.90
23335;DHT22;11839;48.598;8.870;2022-11-20T05:06:42;5.90;99.90
23335;DHT22;11839;48.598;8.870;2022-11-20T05:09:10;6.10;99.90
23335;DHT22;11839;48.598;8.870;2022-11-20T05:11:37;6.30;99.90
23335;DHT22;11839;48.598;8.870;2022-11-20T05:14:05;6.40;99.90
23335;DHT22;11839;48.598;8.870;2022-11-20T05:16:34;6.60;99.90
23335;DHT22;11839;48.598;8.870;2022-11-20T05:19:01;6.80;99.90
23335;DHT22;11839;48.598;8.870;2022-11-20T05:21:30;6.80;99.90
23335;DHT22;11839;48.598;8.870;2022-11-20T05:23:58;6.80;99.90
23335;DHT22;11839;48.598;8.870;2022-11-20T05:26:25;6.80;99.90
23335;DHT22;11839;48.598;8.870;2022-11-20T05:28:51;6.80;99.90
23335;DHT22;11839;48.598;8.870;2022-11-20T05:31:21;6.80;99.90
23335;DHT22;11839;48.598;8.870;2022-11-20T05:33:49;6.50;99.90
23335;DHT22;11839;48.598;8.870;2022-11-20T05:36:17;6.40;99.90
23335;DHT22;11839;48.598;8.870;2022-11-20T05:38:44;6.40;99.90
23335;DHT22;11839;48.598;8.870;2022-11-20T05:41:13;6.50;99.90
23335;DHT22;11839;48.598;8.870;2022-11-20T05:43:41;6.50;99.90
23335;DHT22;11839;48.598;8.870;2022-11-20T05:46:10;6.40;99.90
23335;DHT22;11839;48.598;8.870;2022-11-20T05:48:40;6.20;99.90
23335;DHT22;11839;48.598;8.870;2022-11-20T05:51:09;6.30;99.90
23335;DHT22;11839;48.598;8.870;2022-11-20T05:53:37;6.70;99.90
23335;DHT22;11839;48.598;8.870;2022-11-20T05:56:05;6.60;99.90
23335;DHT22;11839;48.598;8.870;2022-11-20T05:58:33;6.80;99.90
23335;DHT22;11839;48.598;8.870;2022-11-20T06:01:04;6.90;99.90
23335;DHT22;11839;48.598;8.870;2022-11-20T06:03:32;7.10;99.90
23335;DHT22;11839;48.598;8.870;2022-11-20T06:06:00;7.00;99.90
23335;DHT22;11839;48.598;8.870;2022-11-20T06:08:27;7.00;99.90
23335;DHT22;11839;48.598;8.870;2022-11-20T06:10:54;6.90;99.90
23335;DHT22;11839;48.598;8.870;2022-11-20T06:13:21;6.90;99.90
23335;DHT22;11839;48.598;8.870;2022-11-20T06:15:49;7.10;99.90
23335;DHT22;11839;48.598;8.870;2022-11-20T06:18:16;7.10;99.90
23335;DHT22;11839;48.598;8.870;2022-11-20T06:20:43;7.20;99.90
23335;DHT22;11839;48.598;8.870;2022-11-20T06:23:12;7.30;99.90
23335;DHT22;11839;48.598;8.870;2022-11-20T06:25:40;7.30;99.90
23335;DHT22;11839;48.598;8.870;2022-11-20T06:28:07;7.20;99.90
23335;DHT22;11839;48.598;8.870;2022-11-20T06:30:34;7.10;99.90
23335;DHT22;11839;48.598;8.870;2022-11-20T06:33:01;7.20;99.90
23335;DHT22;11839;48.598;8.870;2022-11-20T06:35:28;7.30;99.90
23335;DHT22;11839;48.598;8.870;2022-11-20T06:37:55;7.30;99.90
23335;DHT22;11839;48.598;8.870;2022-11-20T06:40:24;7.10;99.90
23335;DHT22;11839;48.598;8.870;2022-11-20T06:42:52;6.90;99.90
23335;DHT22;11839;48.598;8.870;2022-11-20T06:45:19;6.90;99.90
23335;DHT22;11839;48.598;8.870;2022-11-20T06:47:46;7.10;99.90
23335;DHT22;11839;48.598;8.870;2022-11-20T06:50:13;7.00;99.90
23335;DHT22;11839;48.598;8.870;2022-11-20T06:52:40;7.10;99.90
23335;DHT22;11839;48.598;8.870;2022-11-20T06:55:07;7.30;99.90
23335;DHT22;11839;48.598;8.870;2022-11-20T06:57:36;7.40;99.90
23335;DHT22;11839;48.598;8.870;2022-11-20T07:00:03;7.40;99.90
23335;DHT22;11839;48.598;8.870;2022-11-20T07:02:31;7.30;99.90
23335;DHT22;11839;48.598;8.870;2022-11-20T07:04:57;7.00;99.90
23335;DHT22;11839;48.598;8.870;2022-11-20T07:07:24;7.40;99.90
23335;DHT22;11839;48.598;8.870;2022-11-20T07:09:51;7.30;99.90
23335;DHT22;11839;48.598;8.870;2022-11-20T07:12:18;7.60;99.90
23335;DHT22;11839;48.598;8.870;2022-11-20T07:14:46;7.60;99.90
23335;DHT22;11839;48.598;8.870;2022-11-20T07:17:13;7.90;99.90
23335;DHT22;11839;48.598;8.870;2022-11-20T07:19:40;8.00;99.90
23335;DHT22;11839;48.598;8.870;2022-11-20T07:22:08;7.90;99.90
23335;DHT22;11839;48.598;8.870;2022-11-20T07:24:35;7.80;99.90
23335;DHT22;11839;48.598;8.870;2022-11-20T07:27:04;7.80;99.90
23335;DHT22;11839;48.598;8.870;2022-11-20T07:29:31;7.80;99.90
23335;DHT22;11839;48.598;8.870;2022-11-20T07:31:59;7.90;99.90
23335;DHT22;11839;48.598;8.870;2022-11-20T07:34:27;8.00;99.90
23335;DHT22;11839;48.598;8.870;2022-11-20T07:36:54;8.10;99.90
23335;DHT22;11839;48.598;8.870;2022-11-20T07:39:20;8.00;99.90
23335;DHT22;11839;48.598;8.870;2022-11-20T07:41:47;7.80;99.90
23335;DHT22;11839;48.598;8.870;2022-11-20T07:44:14;7.90;99.90
23335;DHT22;11839;48.598;8.870;2022-11-20T07:46:41;8.00;99.90
23335;DHT22;11839;48.598;8.870;2022-11-20T07:49:09;8.10;99.90
23335;DHT22;11839;48.598;8.870;2022-11-20T07:51:36;8.30;99.90
23335;DHT22;11839;48.598;8.870;2022-11-20T07:54:03;8.30;99.90
23335;DHT22;11839;48.598;8.870;2022-11-20T07:56:30;8.30;99.90
23335;DHT22;11839;48.598;8.870;2022-11-20T07:58:57;8.20;99.90
23335;DHT22;11839;48.598;8.870;2022-11-20T08:01:23;8.20;99.90
23335;DHT22;11839;48.598;8.870;2022-11-20T08:03:50;8.20;99.90
23335;DHT22;11839;48.598;8.870;2022-11-20T08:06:18;8.20;99.90
23335;DHT22;11839;48.598;8.870;2022-11-20T08:08:45;8.50;99.90
23335;DHT22;11839;48.598;8.870;2022-11-20T08:11:12;8.70;99.90
23335;DHT22;11839;48.598;8.870;2022-11-20T08:13:57;8.90;99.90
23335;DHT22;11839;48.598;8.870;2022-11-20T08:16:38;8.80;99.90
23335;DHT22;11839;48.598;8.870;2022-11-20T08:19:06;8.80;99.90
23335;DHT22;11839;48.598;8.870;2022-11-20T08:21:34;8.80;99.90
23335;DHT22;11839;48.598;8.870;2022-11-20T08:24:01;8.90;99.90
23335;DHT22;11839;48.598;8.870;2022-11-20T08:26:28;9.00;99.90
23335;DHT22;11839;48.598;8.870;2022-11-20T08:28:55;9.10;99.90
23335;DHT22;11839;48.598;8.870;2022-11-20T08:31:23;9.10;99.90
23335;DHT22;11839;48.598;8.870;2022-11-20T08:33:51;9.20;99.90
23335;DHT22;11839;48.598;8.870;2022-11-20T08:36:18;9.20;99.90
23335;DHT22;11839;48.598;8.870;2022-11-20T08:38:48;9.40;99.90
23335;DHT22;11839;48.598;8.870;2022-11-20T08:41:16;9.30;99.90
23335;DHT22;11839;48.598;8.870;2022-11-20T08:43:54;9.40;99.90
23335;DHT22;11839;48.598;8.870;2022-11-20T08:46:22;9.30;99.90
23335;DHT22;11839;48.598;8.870;2022-11-20T08:48:49;9.20;99.90
23335;DHT22;11839;48.598;8.870;2022-11-20T08:51:16;9.20;99.90
23335;DHT22;11839;48.598;8.870;2022-11-20T08:53:43;9.20;99.90
23335;DHT22;11839;48.598;8.870;2022-11-20T08:56:11;9.40;99.90
23335;DHT22;11839;48.598;8.870;2022-11-20T08:58:38;9.40;99.90
23335;DHT22;11839;48.598;8.870;2022-11-20T09:01:05;9.40;99.90
23335;DHT22;11839;48.598;8.870;2022-11-20T09:03:32;9.40;99.90
23335;DHT22;11839;48.598;8.870;2022-11-20T09:05:59;9.50;99.90
23335;DHT22;11839;48.598;8.870;2022-11-20T09:08:27;9.60;99.90
23335;DHT22;11839;48.598;8.870;2022-11-20T09:10:55;9.30;99.90
23335;DHT22;11839;48.598;8.870;2022-11-20T09:13:25;9.30;99.90
23335;DHT22;11839;48.598;8.870;2022-11-20T09:15:53;9.40;99.90
23335;DHT22;11839;48.598;8.870;2022-11-20T09:18:20;9.40;99.90
23335;DHT22;11839;48.598;8.870;2022-11-20T09:20:47;9.50;99.90
23335;DHT22;11839;48.598;8.870;2022-11-20T09:23:14;9.70;99.90
23335;DHT22;11839;48.598;8.870;2022-11-20T09:25:41;9.70;99.90
23335;DHT22;11839;48.598;8.870;2022-11-20T09:28:08;9.60;99.90
23335;DHT22;11839;48.598;8.870;2022-11-20T09:30:36;9.20;99.90
23335;DHT22;11839;48.598;8.870;2022-11-20T09:33:04;9.10;99.90
23335;DHT22;11839;48.598;8.870;2022-11-20T09:35:32;9.30;99.90
23335;DHT22;11839;48.598;8.870;2022-11-20T09:38:04;9.20;99.90
23335;DHT22;11839;48.598;8.870;2022-11-20T09:40:31;9.20;99.90
23335;DHT22;11839;48.598;8.870;2022-11-20T09:43:01;9.10;99.90
23335;DHT22;11839;48.598;8.870;2022-11-20T09:45:47;9.00;99.90
23335;DHT22;11839;48.598;8.870;2022-11-20T09:48:25;9.10;99.90
23335;DHT22;11839;48.598;8.870;2022-11-20T09:50:57;9.00;99.90
23335;DHT22;11839;48.598;8.870;2022-11-20T09:53:32;9.10;99.90
23335;DHT22;11839;48.598;8.870;2022-11-20T09:56:03;9.10;99.90
23335;DHT22;11839;48.598;8.870;2022-11-20T09:58:33;8.90;99.90
23335;DHT22;11839;48.598;8.870;2022-11-20T10:01:10;9.30;99.90
23335;DHT22;11839;48.598;8.870;2022-11-20T10:03:45;9.50;99.90
23335;DHT22;11839;48.598;8.870;2022-11-20T10:06:18;9.40;99.90
23335;DHT22;11839;48.598;8.870;2022-11-20T10:08:51;9.30;99.90
23335;DHT22;11839;48.598;8.870;2022-11-20T10:11:33;9.20;99.90
23335;DHT22;11839;48.598;8.870;2022-11-20T10:14:07;9.40;99.90
23335;DHT22;11839;48.598;8.870;2022-11-20T10:16:44;9.70;99.90
23335;DHT22;11839;48.598;8.870;2022-11-20T10:19:28;9.80;99.90
23335;DHT22;11839;48.598;8.870;2022-11-20T10:22:04;9.60;99.90
23335;DHT22;11839;48.598;8.870;2022-11-20T10:24:52;9.50;99.90
23335;DHT22;11839;48.598;8.870;2022-11-20T10:27:42;9.40;99.90
23335;DHT22;11839;48.598;8.870;2022-11-20T10:30:14;9.90;99.90
23335;DHT22;11839;48.598;8.870;2022-11-20T10:32:47;10.10;99.90
23335;DHT22;11839;48.598;8.870;2022-11-20T10:35:20;10.20;99.90
23335;DHT22;11839;48.598;8.870;2022-11-20T10:37:51;9.90;99.90
23335;DHT22;11839;48.598;8.870;2022-11-20T10:40:23;10.00;99.90
23335;DHT22;11839;48.598;8.870;2022-11-20T10:42:58;10.20;99.90
23335;DHT22;11839;48.598;8.870;2022-11-20T10:45:42;10.60;99.90
23335;DHT22;11839;48.598;8.870;2022-11-20T10:48:21;10.60;99.90
23335;DHT22;11839;48.598;8.870;2022-11-20T10:50:58;11.00;99.90
23335;DHT22;11839;48.598;8.870;2022-11-20T10:53:48;11.10;99.90
23335;DHT22;11839;48.598;8.870;2022-11-20T10:56:21;11.20;99.90
23335;DHT22;11839;48.598;8.870;2022-11-20T10:59:00;11.20;99.90
23335;DHT22;11839;48.598;8.870;2022-11-20T11:01:28;11.40;99.90
23335;DHT22;11839;48.598;8.870;2022-11-20T11:03:57;11.20;99.90
23335;DHT22;11839;48.598;8.870;2022-11-20T11:06:29;11.30;99.90
23335;DHT22;11839;48.598;8.870;2022-11-20T11:09:01;11.30;99.90
23335;DHT22;11839;48.598;8.870;2022-11-20T11:11:32;11.10;99.90
23335;DHT22;11839;48.598;8.870;2022-11-20T11:14:06;11.30;99.90
23335;DHT22;11839;48.598;8.870;2022-11-20T11:16:34;11.40;99.90
23335;DHT22;11839;48.598;8.870;2022-11-20T11:19:10;11.60;99.90
23335;DHT22;11839;48.598;8.870;2022-11-20T11:21:38;11.10;99.90
23335;DHT22;11839;48.598;8.870;2022-11-20T11:24:19;10.90;99.90
23335;DHT22;11839;48.598;8.870;2022-11-20T11:26:52;10.70;99.90
23335;DHT22;11839;48.598;8.870;2022-11-20T11:29:20;10.80;99.90
23335;DHT22;11839;48.598;8.870;2022-11-20T11:31:47;11.00;99.90
23335;DHT22;11839;48.598;8.870;2022-11-20T11:34:16;10.70;99.90
23335;DHT22;11839;48.598;8.870;2022-11-20T11:36:57;11.00;99.90
23335;DHT22;11839;48.598;8.870;2022-11-20T11:39:26;10.90;99.90
23335;DHT22;11839;48.598;8.870;2022-11-20T11:41:54;10.70;99.90
23335;DHT22;11839;48.598;8.870;2022-11-20T11:44:22;10.30;99.90
23335;DHT22;11839;48.598;8.870;2022-11-20T11:47:11;10.10;99.90
23335;DHT22;11839;48.598;8.870;2022-11-20T11:49:40;10.20;99.90
23335;DHT22;11839;48.598;8.870;2022-11-20T11:52:12;10.10;99.90
23335;DHT22;11839;48.598;8.870;2022-11-20T11:54:43;10.40;99.90
23335;DHT22;11839;48.598;8.870;2022-11-20T11:57:17;10.60;99.90
23335;DHT22;11839;48.598;8.870;2022-11-20T11:59:59;10.70;99.90
23335;DHT22;11839;48.598;8.870;2022-11-20T12:02:36;10.80;99.90
23335;DHT22;11839;48.598;8.870;2022-11-20T12:05:12;10.70;99.90
23335;DHT22;11839;48.598;8.870;2022-11-20T12:07:42;10.60;99.90
23335;DHT22;11839;48.598;8.870;2022-11-20T12:10:16;10.60;99.90
23335;DHT22;11839;48.598;8.870;2022-11-20T12:12:46;10.40;99.90
23335;DHT22;11839;48.598;8.870;2022-11-20T12:15:24;10.30;99.90
23335;DHT22;11839;48.598;8.870;2022-11-20T12:17:52;10.50;99.90
23335;DHT22;11839;48.598;8.870;2022-11-20T12:20:23;10.60;99.90
23335;DHT22;11839;48.598;8.870;2022-11-20T12:22:54;10.50;99.90
23335;DHT22;11839;48.598;8.870;2022-11-20T12:25:24;10.40;99.90
23335;DHT22;11839;48.598;8.870;2022-11-20T12:30:58;10.40;99.90
23335;DHT22;11839;48.598;8.870;2022-11-20T12:33:52;10.40;99.90
23335;DHT22;11839;48.598;8.870;2022-11-20T12:36:29;10.30;99.90
23335;DHT22;11839;48.598;8.870;2022-11-20T12:39:18;10.10;99.90
23335;DHT22;11839;48.598;8.870;2022-11-20T12:42:19;10.10;99.90
23335;DHT22;11839;48.598;8.870;2022-11-20T12:45:33;10.30;99.90
23335;DHT22;11839;48.598;8.870;2022-11-20T12:48:22;10.40;99.90
23335;DHT22;11839;48.598;8.870;2022-11-20T12:51:03;10.70;99.90
23335;DHT22;11839;48.598;8.870;2022-11-20T12:53:38;10.80;99.90
23335;DHT22;11839;48.598;8.870;2022-11-20T12:56:17;10.50;99.90
23335;DHT22;11839;48.598;8.870;2022-11-20T12:58:57;10.40;99.90
23335;DHT22;11839;48.598;8.870;2022-11-20T13:01:32;10.70;99.90
23335;DHT22;11839;48.598;8.870;2022-11-20T13:06:54;10.80;99.90
23335;DHT22;11839;48.598;8.870;2022-11-20T13:09:23;10.90;99.90
23335;DHT22;11839;48.598;8.870;2022-11-20T13:12:01;11.30;99.90
23335;DHT22;11839;48.598;8.870;2022-11-20T13:14:36;11.10;99.90
23335;DHT22;11839;48.598;8.870;2022-11-20T13:17:07;10.70;99.90
23335;DHT22;11839;48.598;8.870;2022-11-20T13:19:37;10.50;99.90
23335;DHT22;11839;48.598;8.870;2022-11-20T13:22:04;10.80;99.90
23335;DHT22;11839;48.598;8.870;2022-11-20T13:24:32;10.80;99.90
23335;DHT22;11839;48.598;8.870;2022-11-20T13:27:04;11.20;99.90
23335;DHT22;11839;48.598;8.870;2022-11-20T13:29:32;11.10;99.90
23335;DHT22;11839;48.598;8.870;2022-11-20T13:32:04;10.90;99.90
23335;DHT22;11839;48.598;8.870;2022-11-20T13:34:32;10.70;99.90
23335;DHT22;11839;48.598;8.870;2022-11-20T13:37:01;10.80;99.90
23335;DHT22;11839;48.598;8.870;2022-11-20T13:39:32;10.90;99.90
23335;DHT22;11839;48.598;8.870;2022-11-20T13:42:01;11.00;99.90
23335;DHT22;11839;48.598;8.870;2022-11-20T13:44:33;10.90;99.90
23335;DHT22;11839;48.598;8.870;2022-11-20T13:47:03;10.90;99.90
23335;DHT22;11839;48.598;8.870;2022-11-20T13:49:32;11.00;99.90
23335;DHT22;11839;48.598;8.870;2022-11-20T13:52:14;10.80;99.90
23335;DHT22;11839;48.598;8.870;2022-11-20T13:55:07;10.40;99.90
23335;DHT22;11839;48.598;8.870;2022-11-20T13:57:48;10.60;99.90
23335;DHT22;11839;48.598;8.870;2022-11-20T14:00:20;10.60;99.90
23335;DHT22;11839;48.598;8.870;2022-11-20T14:02:59;10.60;99.90
23335;DHT22;11839;48.598;8.870;2022-11-20T14:05:26;10.80;99.90
23335;DHT22;11839;48.598;8.870;2022-11-20T14:07:54;10.60;99.90
23335;DHT22;11839;48.598;8.870;2022-11-20T14:10:24;10.30;99.90
23335;DHT22;11839;48.598;8.870;2022-11-20T14:12:52;10.00;99.90
23335;DHT22;11839;48.598;8.870;2022-11-20T14:15:27;10.10;99.90
23335;DHT22;11839;48.598;8.870;2022-11-20T14:17:54;10.20;99.90
23335;DHT22;11839;48.598;8.870;2022-11-20T14:20:23;10.10;99.90
23335;DHT22;11839;48.598;8.870;2022-11-20T14:22:52;9.70;99.90
23335;DHT22;11839;48.598;8.870;2022-11-20T14:25:21;9.80;99.90
23335;DHT22;11839;48.598;8.870;2022-11-20T14:27:55;9.80;99.90
23335;DHT22;11839;48.598;8.870;2022-11-20T14:30:24;9.80;99.90
23335;DHT22;11839;48.598;8.870;2022-11-20T14:32:54;9.80;99.90
23335;DHT22;11839;48.598;8.870;2022-11-20T14:35:24;9.70;99.90
23335;DHT22;11839;48.598;8.870;2022-11-20T14:37:52;9.70;99.90
23335;DHT22;11839;48.598;8.870;2022-11-20T14:40:26;9.50;99.90
23335;DHT22;11839;48.598;8.870;2022-11-20T14:42:55;9.40;99.90
23335;DHT22;11839;48.598;8.870;2022-11-20T14:45:22;9.60;99.90
23335;DHT22;11839;48.598;8.870;2022-11-20T14:47:51;9.60;99.90
23335;DHT22;11839;48.598;8.870;2022-11-20T14:50:22;9.50;99.90
23335;DHT22;11839;48.598;8.870;2022-11-20T14:52:53;9.30;99.90
23335;DHT22;11839;48.598;8.870;2022-11-20T14:55:32;9.30;99.90
23335;DHT22;11839;48.598;8.870;2022-11-20T14:58:02;9.30;99.90
23335;DHT22;11839;48.598;8.870;2022-11-20T15:00:30;9.30;99.90
23335;DHT22;11839;48.598;8.870;2022-11-20T15:02:58;9.30;99.90
23335;DHT22;11839;48.598;8.870;2022-11-20T15:05:37;9.40;99.90
23335;DHT22;11839;48.598;8.870;2022-11-20T15:08:11;9.30;99.90
23335;DHT22;11839;48.598;8.870;2022-11-20T15:10:44;9.30;99.90
23335;DHT22;11839;48.598;8.870;2022-11-20T15:13:14;9.10;99.90
23335;DHT22;11839;48.598;8.870;2022-11-20T15:15:45;9.00;99.90
23335;DHT22;11839;48.598;8.870;2022-11-20T15:18:13;9.10;99.90
23335;DHT22;11839;48.598;8.870;2022-11-20T15:20:41;9.20;99.90
23335;DHT22;11839;48.598;8.870;2022-11-20T15:23:10;9.20;99.90
23335;DHT22;11839;48.598;8.870;2022-11-20T15:25:38;9.20;99.90
23335;DHT22;11839;48.598;8.870;2022-11-20T15:28:15;9.10;99.90
23335;DHT22;11839;48.598;8.870;2022-11-20T15:30:43;9.10;99.90
23335;DHT22;11839;48.598;8.870;2022-11-20T15:33:10;9.00;99.90
23335;DHT22;11839;48.598;8.870;2022-11-20T15:35:37;9.00;99.90
23335;DHT22;11839;48.598;8.870;2022-11-20T15:38:03;9.20;99.90
23335;DHT22;11839;48.598;8.870;2022-11-20T15:40:31;9.20;99.90
23335;DHT22;11839;48.598;8.870;2022-11-20T15:42:58;9.10;99.90
23335;DHT22;11839;48.598;8.870;2022-11-20T15:45:36;9.10;99.90
23335;DHT22;11839;48.598;8.870;2022-11-20T15:48:12;9.00;99.90
23335;DHT22;11839;48.598;8.870;2022-11-20T15:50:52;8.90;99.90
23335;DHT22;11839;48.598;8.870;2022-11-20T15:53:20;8.90;99.90
23335;DHT22;11839;48.598;8.870;2022-11-20T15:55:47;8.80;99.90
23335;DHT22;11839;48.598;8.870;2022-11-20T15:58:14;8.80;99.90
23335;DHT22;11839;48.598;8.870;2022-11-20T16:00:43;8.90;99.90
23335;DHT22;11839;48.598;8.870;2022-11-20T16:03:11;8.90;99.90
23335;DHT22;11839;48.598;8.870;2022-11-20T16:05:38;9.00;99.90
23335;DHT22;11839;48.598;8.870;2022-11-20T16:08:05;9.10;99.90